Wednesbury, United Kingdom
Current Conditions -  °F | °C
As of 6:20 PM on Thursday 18 Dec 2014 (Local Time) from EGBB Reporting Station
Broken Clouds Broken Clouds  
Wind Chill: 55°   Ceiling: 2100
Heat Index: 55°   Visibility: 6mi
Dew Point: 48°   Wind: 14mph
Humidity: 77%   Direction: 230°SW
Pressure: 29.71"   Gusts: NA
Location:  52.55°N, 2.02°W
Report Text: EGBB 181820Z 23012KT 200V280 9999 BKN021 13/09 Q1006
Loading
Personal Weather Stations






























Interactive Weather Map New forecast layout! Learn more

10-Day Weather Forecast

Advertisements
Track Severe Weather on mobile